createdAt,value
2017-07-11T00:00:30.427Z,1004.24
2017-07-11T00:01:10.963Z,1004.25
2017-07-11T00:01:51.504Z,1004.3
2017-07-11T00:02:32.043Z,1004.28
2017-07-11T00:03:12.633Z,1004.3
2017-07-11T00:03:53.127Z,1004.32
2017-07-11T00:04:33.671Z,1004.3
2017-07-11T00:05:14.213Z,1004.32
2017-07-11T00:05:54.740Z,1004.32
2017-07-11T00:06:35.280Z,1004.34
2017-07-11T00:07:15.830Z,1004.36
2017-07-11T00:07:56.345Z,1004.37
2017-07-11T00:08:36.881Z,1004.38
2017-07-11T00:09:17.424Z,1004.42
2017-07-11T00:09:57.967Z,1004.41
2017-07-11T00:10:38.500Z,1004.4
2017-07-11T00:11:19.036Z,1004.4
2017-07-11T00:11:59.573Z,1004.38
2017-07-11T00:12:40.113Z,1004.35
2017-07-11T00:13:20.650Z,1004.35
2017-07-11T00:14:01.191Z,1004.33
2017-07-11T00:14:41.730Z,1004.32
2017-07-11T00:15:22.267Z,1004.36
2017-07-11T00:16:02.804Z,1004.34
2017-07-11T00:16:43.330Z,1004.33
2017-07-11T00:17:23.869Z,1004.36
2017-07-11T00:18:04.404Z,1004.37
2017-07-11T00:18:44.939Z,1004.35
2017-07-11T00:19:25.478Z,1004.37
2017-07-11T00:20:06.019Z,1004.4
2017-07-11T00:20:46.549Z,1004.37
2017-07-11T00:21:27.087Z,1004.38
2017-07-11T00:22:07.623Z,1004.38
2017-07-11T00:22:48.162Z,1004.42
2017-07-11T00:23:28.701Z,1004.45
2017-07-11T00:24:09.246Z,1004.47
2017-07-11T00:24:49.782Z,1004.49
2017-07-11T00:25:30.313Z,1004.54
2017-07-11T00:26:10.849Z,1004.53
2017-07-11T00:26:51.390Z,1004.52
2017-07-11T00:27:31.919Z,1004.52
2017-07-11T00:28:12.457Z,1004.56
2017-07-11T00:28:52.996Z,1004.51
2017-07-11T00:29:33.534Z,1004.53
2017-07-11T00:30:14.077Z,1004.54
2017-07-11T00:30:54.616Z,1004.55
2017-07-11T00:31:35.148Z,1004.54
2017-07-11T00:32:15.702Z,1004.57
2017-07-11T00:32:56.232Z,1004.57
2017-07-11T00:33:36.772Z,1004.57
2017-07-11T00:34:17.312Z,1004.58
2017-07-11T00:34:57.845Z,1004.59
2017-07-11T00:35:38.370Z,1004.62
2017-07-11T00:36:18.902Z,1004.62
2017-07-11T00:36:59.434Z,1004.64
2017-07-11T00:37:39.970Z,1004.67
2017-07-11T00:38:20.511Z,1004.66
2017-07-11T00:39:01.063Z,1004.65
2017-07-11T00:39:41.608Z,1004.67
2017-07-11T00:40:22.148Z,1004.65
2017-07-11T00:41:02.686Z,1004.66
2017-07-11T00:41:43.225Z,1004.65
2017-07-11T00:42:23.761Z,1004.68
2017-07-11T00:43:04.292Z,1004.68
2017-07-11T00:43:44.830Z,1004.69
2017-07-11T00:44:25.371Z,1004.71
2017-07-11T00:45:05.910Z,1004.69
2017-07-11T00:45:46.451Z,1004.7
2017-07-11T00:46:26.996Z,1004.71
2017-07-11T00:47:07.529Z,1004.68
2017-07-11T00:47:48.066Z,1004.68
2017-07-11T00:48:28.598Z,1004.72
2017-07-11T00:49:09.139Z,1004.67
2017-07-11T00:49:49.679Z,1004.68
2017-07-11T00:50:30.206Z,1004.65
2017-07-11T00:51:10.751Z,1004.64
2017-07-11T00:51:51.274Z,1004.66
2017-07-11T00:52:31.812Z,1004.68
2017-07-11T00:53:12.347Z,1004.65
2017-07-11T00:53:52.891Z,1004.63
2017-07-11T00:54:33.432Z,1004.61
2017-07-11T00:55:13.960Z,1004.64
2017-07-11T00:55:54.498Z,1004.63
2017-07-11T00:56:35.032Z,1004.64
2017-07-11T00:57:15.567Z,1004.69
2017-07-11T00:57:56.111Z,1004.73
2017-07-11T00:58:36.645Z,1004.73
2017-07-11T00:59:17.192Z,1004.7
2017-07-11T00:59:57.733Z,1004.72
2017-07-11T01:00:38.275Z,1004.72
2017-07-11T01:01:18.815Z,1004.78
2017-07-11T01:01:59.348Z,1004.79
2017-07-11T01:02:39.877Z,1004.79
2017-07-11T01:03:20.413Z,1004.81
2017-07-11T01:04:00.957Z,1004.83
2017-07-11T01:04:41.493Z,1004.78
2017-07-11T01:05:22.026Z,1004.8
2017-07-11T01:06:02.566Z,1004.77
2017-07-11T01:06:43.100Z,1004.8
2017-07-11T01:07:23.644Z,1004.77
2017-07-11T01:08:04.181Z,1004.78
2017-07-11T01:08:44.704Z,1004.8
2017-07-11T01:09:25.243Z,1004.81
2017-07-11T01:10:05.785Z,1004.79
2017-07-11T01:10:46.319Z,1004.8
2017-07-11T01:11:26.861Z,1004.77
2017-07-11T01:12:07.397Z,1004.83
2017-07-11T01:12:47.931Z,1004.82
2017-07-11T01:13:28.467Z,1004.77
2017-07-11T01:14:09.006Z,1004.78
2017-07-11T01:14:49.550Z,1004.78
2017-07-11T01:15:30.093Z,1004.79
2017-07-11T01:16:10.632Z,1004.75
2017-07-11T01:16:51.174Z,1004.75
2017-07-11T01:17:31.717Z,1004.74
2017-07-11T01:18:12.258Z,1004.71
2017-07-11T01:18:52.790Z,1004.68
2017-07-11T01:19:33.314Z,1004.71
2017-07-11T01:20:13.853Z,1004.72
2017-07-11T01:20:54.412Z,1004.74
2017-07-11T01:21:34.976Z,1004.73
2017-07-11T01:22:15.521Z,1004.74
2017-07-11T01:22:56.136Z,1004.7
2017-07-11T01:23:36.677Z,1004.71
2017-07-11T01:24:17.215Z,1004.73
2017-07-11T01:24:57.751Z,1004.72
2017-07-11T01:25:38.294Z,1004.7
2017-07-11T01:26:18.834Z,1004.71
2017-07-11T01:26:59.365Z,1004.7
2017-07-11T01:27:39.893Z,1004.73
2017-07-11T01:28:20.437Z,1004.71
2017-07-11T01:29:00.967Z,1004.7
2017-07-11T01:29:41.502Z,1004.7
2017-07-11T01:30:22.035Z,1004.71
2017-07-11T01:31:02.584Z,1004.71
2017-07-11T01:31:43.118Z,1004.68
2017-07-11T01:32:23.665Z,1004.67
2017-07-11T01:33:04.208Z,1004.66
2017-07-11T01:33:44.758Z,1004.68
2017-07-11T01:34:25.294Z,1004.64
2017-07-11T01:35:05.844Z,1004.64
2017-07-11T01:35:46.388Z,1004.63
2017-07-11T01:36:26.937Z,1004.63
2017-07-11T01:37:07.477Z,1004.65
2017-07-11T01:37:48.013Z,1004.66
2017-07-11T01:38:28.559Z,1004.63
2017-07-11T01:39:09.093Z,1004.65
2017-07-11T01:39:49.624Z,1004.63
2017-07-11T01:40:30.173Z,1004.66
2017-07-11T01:41:10.712Z,1004.65
2017-07-11T01:41:51.250Z,1004.64
2017-07-11T01:42:31.803Z,1004.65
2017-07-11T01:43:12.353Z,1004.65
2017-07-11T01:43:52.896Z,1004.65
2017-07-11T01:44:33.420Z,1004.66
2017-07-11T01:45:13.952Z,1004.64
2017-07-11T01:45:54.488Z,1004.63
2017-07-11T01:46:35.030Z,1004.67
2017-07-11T01:47:15.572Z,1004.63
2017-07-11T01:47:56.115Z,1004.63
2017-07-11T01:48:36.662Z,1004.65
2017-07-11T01:49:17.211Z,1004.63
2017-07-11T01:49:57.760Z,1004.62
2017-07-11T01:50:38.310Z,1004.65
2017-07-11T01:51:18.857Z,1004.7
2017-07-11T01:51:59.391Z,1004.61
2017-07-11T01:52:39.925Z,1004.62
2017-07-11T01:53:20.463Z,1004.67
2017-07-11T01:54:00.996Z,1004.68
2017-07-11T01:54:41.540Z,1004.68
2017-07-11T01:55:22.089Z,1004.71
2017-07-11T01:56:02.634Z,1004.67
2017-07-11T01:56:43.182Z,1004.71
2017-07-11T01:57:23.727Z,1004.71
2017-07-11T01:58:04.270Z,1004.74
2017-07-11T01:58:44.813Z,1004.71
2017-07-11T01:59:25.339Z,1004.73
2017-07-11T02:00:05.871Z,1004.73
2017-07-11T02:00:46.419Z,1004.71
2017-07-11T02:01:26.959Z,1004.72
2017-07-11T02:02:07.498Z,1004.7
2017-07-11T02:02:48.045Z,1004.74
2017-07-11T02:03:28.581Z,1004.72
2017-07-11T02:04:09.124Z,1004.7
2017-07-11T02:04:49.667Z,1004.72
2017-07-11T02:05:30.196Z,1004.71
2017-07-11T02:06:10.750Z,1004.68
2017-07-11T02:06:51.269Z,1004.7
2017-07-11T02:07:31.802Z,1004.7
2017-07-11T02:08:12.343Z,1004.71
2017-07-11T02:08:52.882Z,1004.69
2017-07-11T02:09:33.464Z,1004.68
2017-07-11T02:10:14.007Z,1004.67
2017-07-11T02:10:54.545Z,1004.66
2017-07-11T02:11:35.090Z,1004.62
2017-07-11T02:12:15.636Z,1004.66
2017-07-11T02:12:56.176Z,1004.64
2017-07-11T02:13:36.701Z,1004.65
2017-07-11T02:14:17.244Z,1004.64
2017-07-11T02:14:57.781Z,1004.63
2017-07-11T02:15:38.321Z,1004.68
2017-07-11T02:16:18.862Z,1004.64
2017-07-11T02:16:59.404Z,1004.67
2017-07-11T02:17:39.952Z,1004.67
2017-07-11T02:18:20.492Z,1004.68
2017-07-11T02:19:01.031Z,1004.7
2017-07-11T02:19:41.569Z,1004.68
2017-07-11T02:20:22.108Z,1004.72
2017-07-11T02:21:02.681Z,1004.73
2017-07-11T02:21:43.215Z,1004.7
2017-07-11T02:22:23.752Z,1004.68
2017-07-11T02:23:04.279Z,1004.7
2017-07-11T02:23:44.819Z,1004.69
2017-07-11T02:24:25.356Z,1004.74
2017-07-11T02:25:05.900Z,1004.74
2017-07-11T02:25:46.442Z,1004.72
2017-07-11T02:26:26.962Z,1004.73
2017-07-11T02:27:07.496Z,1004.77
2017-07-11T02:27:48.028Z,1004.77
2017-07-11T02:28:28.578Z,1004.75
2017-07-11T02:29:09.122Z,1004.76
2017-07-11T02:29:49.664Z,1004.75
2017-07-11T02:30:30.206Z,1004.78
2017-07-11T02:31:10.748Z,1004.77
2017-07-11T02:31:51.293Z,1004.75
2017-07-11T02:32:31.835Z,1004.74
2017-07-11T02:33:12.378Z,1004.7
2017-07-11T02:33:52.906Z,1004.7
2017-07-11T02:34:33.427Z,1004.71
2017-07-11T02:35:13.967Z,1004.72
2017-07-11T02:35:54.510Z,1004.74
2017-07-11T02:36:35.057Z,1004.76
2017-07-11T02:37:15.579Z,1004.76
2017-07-11T02:37:56.113Z,1004.78
2017-07-11T02:38:36.652Z,1004.72
2017-07-11T02:39:17.196Z,1004.77
2017-07-11T02:39:57.735Z,1004.76
2017-07-11T02:40:38.276Z,1004.77
2017-07-11T02:41:18.810Z,1004.74
2017-07-11T02:41:59.353Z,1004.77
2017-07-11T02:42:39.893Z,1004.77
2017-07-11T02:43:20.429Z,1004.73
2017-07-11T02:44:00.977Z,1004.76
2017-07-11T02:44:41.511Z,1004.79
2017-07-11T02:45:22.058Z,1004.79
2017-07-11T02:46:02.597Z,1004.79
2017-07-11T02:46:43.142Z,1004.8
2017-07-11T02:47:23.683Z,1004.81
2017-07-11T02:48:04.215Z,1004.84
2017-07-11T02:48:44.752Z,1004.83
2017-07-11T02:49:25.285Z,1004.81
2017-07-11T02:50:05.815Z,1004.84
2017-07-11T02:50:46.346Z,1004.84
2017-07-11T02:51:26.891Z,1004.82
2017-07-11T02:52:07.427Z,1004.83
2017-07-11T02:52:47.976Z,1004.86
2017-07-11T02:53:28.516Z,1004.82
2017-07-11T02:54:09.085Z,1004.84
2017-07-11T02:54:49.589Z,1004.88
2017-07-11T02:55:30.119Z,1004.9
2017-07-11T02:56:10.654Z,1004.94
2017-07-11T02:56:51.203Z,1004.91
2017-07-11T02:57:31.747Z,1004.94
2017-07-11T02:58:12.278Z,1004.98
2017-07-11T02:58:52.819Z,1004.98
2017-07-11T02:59:33.356Z,1005
2017-07-11T03:00:13.895Z,1005.02
2017-07-11T03:00:54.438Z,1005
2017-07-11T03:01:34.975Z,1005.03
2017-07-11T03:02:15.515Z,1005.03
2017-07-11T03:02:56.056Z,1005.06
2017-07-11T03:03:36.608Z,1005.01
2017-07-11T03:04:17.155Z,1005.01
2017-07-11T03:04:57.699Z,1005.02
2017-07-11T03:05:38.240Z,1005.05
2017-07-11T03:06:18.785Z,1005.02
2017-07-11T03:06:59.328Z,1005.03
2017-07-11T03:07:39.851Z,1005.01
2017-07-11T03:08:20.392Z,1005.03
2017-07-11T03:09:00.930Z,1005.01
2017-07-11T03:09:41.474Z,1005.01
2017-07-11T03:10:21.992Z,1005.02
2017-07-11T03:11:02.554Z,1005.02
2017-07-11T03:11:43.118Z,1005.03
2017-07-11T03:12:23.651Z,1005.01
2017-07-11T03:13:04.203Z,1005.02
2017-07-11T03:13:44.735Z,1005.01
2017-07-11T03:14:25.252Z,1005.01
2017-07-11T03:15:05.775Z,1005.02
2017-07-11T03:15:46.336Z,1005.03
2017-07-11T03:16:26.874Z,1005
2017-07-11T03:17:07.416Z,1005
2017-07-11T03:17:47.960Z,1005.01
2017-07-11T03:18:28.500Z,1005.03
2017-07-11T03:19:09.041Z,1005.03
2017-07-11T03:19:49.568Z,1005.04
2017-07-11T03:20:30.111Z,1005
2017-07-11T03:21:10.638Z,1005
2017-07-11T03:21:51.177Z,1005.02
2017-07-11T03:22:31.735Z,1005.03
2017-07-11T03:23:12.276Z,1005.04
2017-07-11T03:23:52.822Z,1005.07
2017-07-11T03:24:33.363Z,1005
2017-07-11T03:25:13.851Z,1005.05
2017-07-11T03:25:54.375Z,1005.05
2017-07-11T03:26:34.910Z,1005.08
2017-07-11T03:27:15.453Z,1005.09
2017-07-11T03:27:55.984Z,1005.04
2017-07-11T03:28:36.582Z,1005.04
2017-07-11T03:29:17.120Z,1005.06
2017-07-11T03:29:57.666Z,1005.08
2017-07-11T03:30:38.297Z,1005.07
2017-07-11T03:31:19.001Z,1005.09
2017-07-11T03:31:59.565Z,1005.08
2017-07-11T03:32:40.094Z,1005.07
2017-07-11T03:33:20.639Z,1005.07
2017-07-11T03:34:01.175Z,1005.08
2017-07-11T03:34:41.709Z,1005.08
2017-07-11T03:35:22.219Z,1005.11
2017-07-11T03:36:02.752Z,1005.12
2017-07-11T03:36:43.293Z,1005.11
2017-07-11T03:37:23.825Z,1005.14
2017-07-11T03:38:04.361Z,1005.15
2017-07-11T03:38:44.897Z,1005.17
2017-07-11T03:39:25.401Z,1005.15
2017-07-11T03:40:05.947Z,1005.18
2017-07-11T03:40:46.485Z,1005.2
2017-07-11T03:41:27.030Z,1005.24
2017-07-11T03:42:07.570Z,1005.23
2017-07-11T03:42:48.109Z,1005.24
2017-07-11T03:43:28.660Z,1005.23
2017-07-11T03:44:09.171Z,1005.24
2017-07-11T03:44:49.717Z,1005.24
2017-07-11T03:45:30.406Z,1005.28
2017-07-11T03:46:10.822Z,1005.25
2017-07-11T03:46:51.365Z,1005.28
2017-07-11T03:47:31.902Z,1005.27
2017-07-11T03:48:12.442Z,1005.28
2017-07-11T03:48:53.003Z,1005.32
2017-07-11T03:49:33.533Z,1005.3
2017-07-11T03:50:14.082Z,1005.31
2017-07-11T03:50:54.600Z,1005.31
2017-07-11T03:51:35.147Z,1005.31
2017-07-11T03:52:15.677Z,1005.36
2017-07-11T03:52:56.206Z,1005.33
2017-07-11T03:55:16.233Z,1005.36
2017-07-11T03:55:56.770Z,1005.4
2017-07-11T03:56:37.318Z,1005.37
2017-07-11T03:57:17.851Z,1005.39
2017-07-11T03:57:58.402Z,1005.39
2017-07-11T03:58:38.982Z,1005.37
2017-07-11T03:59:19.495Z,1005.38
2017-07-11T04:00:00.020Z,1005.38
2017-07-11T04:00:40.576Z,1005.36
2017-07-11T04:01:21.103Z,1005.39
2017-07-11T04:02:01.615Z,1005.4
2017-07-11T04:02:42.138Z,1005.43
2017-07-11T04:03:22.662Z,1005.44
2017-07-11T04:04:03.186Z,1005.44
2017-07-11T04:04:43.737Z,1005.44
2017-07-11T04:05:24.270Z,1005.41
2017-07-11T04:06:04.808Z,1005.45
2017-07-11T04:06:45.351Z,1005.43
2017-07-11T04:07:25.892Z,1005.4
2017-07-11T04:08:06.459Z,1005.41
2017-07-11T04:08:47.005Z,1005.42
2017-07-11T04:09:27.596Z,1005.41
2017-07-11T04:10:08.127Z,1005.41
2017-07-11T04:10:48.677Z,1005.38
2017-07-11T04:11:29.217Z,1005.35
2017-07-11T04:12:09.737Z,1005.36
2017-07-11T04:12:50.259Z,1005.39
2017-07-11T04:13:30.793Z,1005.41
2017-07-11T04:14:11.336Z,1005.38
2017-07-11T04:14:51.861Z,1005.4
2017-07-11T04:15:32.385Z,1005.42
2017-07-11T04:16:12.934Z,1005.41
2017-07-11T04:16:53.451Z,1005.44
2017-07-11T04:17:33.972Z,1005.4
2017-07-11T04:18:14.545Z,1005.4
2017-07-11T04:18:55.052Z,1005.4
2017-07-11T04:19:35.588Z,1005.35
2017-07-11T04:20:16.167Z,1005.39
2017-07-11T04:20:56.699Z,1005.41
2017-07-11T04:21:37.272Z,1005.41
2017-07-11T04:22:17.800Z,1005.44
2017-07-11T04:22:58.353Z,1005.42
2017-07-11T04:23:38.895Z,1005.45
2017-07-11T04:24:19.411Z,1005.44
2017-07-11T04:24:59.983Z,1005.44
2017-07-11T04:25:40.549Z,1005.47
2017-07-11T04:26:21.109Z,1005.47
2017-07-11T04:27:01.648Z,1005.48
2017-07-11T04:27:42.174Z,1005.49
2017-07-11T04:28:22.702Z,1005.49
2017-07-11T04:29:03.240Z,1005.5
2017-07-11T04:29:43.776Z,1005.52
2017-07-11T04:30:24.316Z,1005.51
2017-07-11T04:31:04.862Z,1005.51
2017-07-11T04:31:45.430Z,1005.51
2017-07-11T04:32:25.956Z,1005.47
2017-07-11T04:33:06.495Z,1005.52
2017-07-11T04:33:47.044Z,1005.52
2017-07-11T04:34:27.572Z,1005.5
2017-07-11T04:35:08.102Z,1005.5
2017-07-11T04:35:48.654Z,1005.52
2017-07-11T04:36:29.199Z,1005.5
2017-07-11T04:37:09.732Z,1005.48
2017-07-11T04:37:50.269Z,1005.52
2017-07-11T04:38:30.808Z,1005.56
2017-07-11T04:39:11.352Z,1005.54
2017-07-11T04:39:51.905Z,1005.57
2017-07-11T04:40:32.440Z,1005.54
2017-07-11T04:41:12.982Z,1005.56
2017-07-11T04:41:53.517Z,1005.57
2017-07-11T04:42:34.056Z,1005.58
2017-07-11T04:43:14.607Z,1005.57
2017-07-11T04:43:55.148Z,1005.54
2017-07-11T04:44:35.687Z,1005.52
2017-07-11T04:45:16.225Z,1005.53
2017-07-11T04:45:56.764Z,1005.54
2017-07-11T04:46:37.306Z,1005.53
2017-07-11T04:47:17.834Z,1005.53
2017-07-11T04:47:58.374Z,1005.53
2017-07-11T04:48:38.911Z,1005.53
2017-07-11T04:49:19.451Z,1005.5
2017-07-11T04:49:59.994Z,1005.48
2017-07-11T04:50:40.549Z,1005.48
2017-07-11T04:51:21.099Z,1005.49
2017-07-11T04:52:01.618Z,1005.5
2017-07-11T04:52:42.152Z,1005.5
2017-07-11T04:53:22.706Z,1005.54
2017-07-11T04:54:03.231Z,1005.58
2017-07-11T04:54:43.781Z,1005.58
2017-07-11T04:55:24.325Z,1005.54
2017-07-11T04:56:04.857Z,1005.55
2017-07-11T04:56:45.403Z,1005.57
2017-07-11T04:57:25.946Z,1005.58
2017-07-11T04:58:06.475Z,1005.57
2017-07-11T04:58:47.006Z,1005.61
2017-07-11T04:59:27.546Z,1005.59
2017-07-11T05:00:08.083Z,1005.56
2017-07-11T05:00:48.620Z,1005.61
2017-07-11T05:01:29.161Z,1005.59
2017-07-11T05:02:09.706Z,1005.61
2017-07-11T05:02:50.240Z,1005.58
2017-07-11T05:03:30.791Z,1005.57
2017-07-11T05:04:11.296Z,1005.58
2017-07-11T05:04:51.833Z,1005.56
2017-07-11T05:05:32.362Z,1005.58
2017-07-11T05:06:12.906Z,1005.59
2017-07-11T05:06:53.443Z,1005.58
2017-07-11T05:07:33.983Z,1005.58
2017-07-11T05:08:14.520Z,1005.57
2017-07-11T05:08:55.051Z,1005.56
2017-07-11T05:09:35.599Z,1005.57
2017-07-11T05:10:16.132Z,1005.55
2017-07-11T05:10:56.690Z,1005.58
2017-07-11T05:11:37.216Z,1005.58
2017-07-11T05:12:17.752Z,1005.52
2017-07-11T05:12:58.293Z,1005.6
2017-07-11T05:13:38.838Z,1005.6
2017-07-11T05:14:19.377Z,1005.66
2017-07-11T05:14:59.917Z,1005.59
2017-07-11T05:15:40.447Z,1005.64
2017-07-11T05:16:20.987Z,1005.64
2017-07-11T05:17:01.540Z,1005.69
2017-07-11T05:17:42.077Z,1005.68
2017-07-11T05:18:22.618Z,1005.66
2017-07-11T05:19:03.140Z,1005.69
2017-07-11T05:19:43.689Z,1005.73
2017-07-11T05:20:24.217Z,1005.76
2017-07-11T05:21:04.757Z,1005.76
2017-07-11T05:21:45.292Z,1005.79
2017-07-11T05:22:25.832Z,1005.79
2017-07-11T05:23:06.392Z,1005.8
2017-07-11T05:23:46.926Z,1005.8
2017-07-11T05:24:27.472Z,1005.81
2017-07-11T05:25:08.013Z,1005.83
2017-07-11T05:25:48.553Z,1005.84
2017-07-11T05:26:29.091Z,1005.84
2017-07-11T05:27:09.632Z,1005.85
2017-07-11T05:27:50.169Z,1005.83
2017-07-11T05:28:30.713Z,1005.82
2017-07-11T05:29:11.248Z,1005.8
2017-07-11T05:29:51.812Z,1005.8
2017-07-11T05:30:32.332Z,1005.82
2017-07-11T05:31:12.870Z,1005.81
2017-07-11T05:31:53.396Z,1005.78
2017-07-11T05:32:33.920Z,1005.75
2017-07-11T05:33:14.456Z,1005.81
2017-07-11T05:33:54.991Z,1005.81
2017-07-11T05:34:35.556Z,1005.81
2017-07-11T05:35:16.103Z,1005.8
2017-07-11T05:35:56.645Z,1005.77
2017-07-11T05:36:37.190Z,1005.79
2017-07-11T05:37:17.747Z,1005.8
2017-07-11T05:37:58.379Z,1005.82
2017-07-11T05:38:38.768Z,1005.86
2017-07-11T05:39:19.292Z,1005.85
2017-07-11T05:39:59.970Z,1005.9
2017-07-11T05:40:40.418Z,1005.86
2017-07-11T05:41:20.942Z,1005.87
2017-07-11T05:42:01.539Z,1005.85
2017-07-11T05:42:42.304Z,1005.88
2017-07-11T05:43:22.961Z,1005.86
2017-07-11T05:44:03.669Z,1005.87
2017-07-11T05:44:44.408Z,1005.87
2017-07-11T05:45:27.895Z,1005.9
2017-07-11T05:46:13.093Z,1005.89
2017-07-11T05:47:01.622Z,1005.86
2017-07-11T05:47:46.917Z,1005.85
2017-07-11T05:48:29.809Z,1005.89
2017-07-11T05:49:21.095Z,1005.86
2017-07-11T05:50:17.935Z,1005.87
2017-07-11T05:51:08.282Z,1005.87
2017-07-11T05:51:56.394Z,1005.83
2017-07-11T05:52:41.132Z,1005.84
2017-07-11T05:53:29.752Z,1005.84
2017-07-11T05:54:14.149Z,1005.87
2017-07-11T05:56:22.002Z,1005.89
2017-07-11T05:57:02.522Z,1005.88
2017-07-11T05:57:43.083Z,1005.87
2017-07-11T05:58:23.559Z,1005.85
2017-07-11T05:59:04.200Z,1005.86
2017-07-11T05:59:45.017Z,1005.86
2017-07-11T06:00:28.170Z,1005.87
2017-07-11T06:01:09.694Z,1005.87
2017-07-11T06:01:53.312Z,1005.9
2017-07-11T06:02:49.155Z,1005.94
2017-07-11T06:03:29.624Z,1005.89
2017-07-11T06:04:13.801Z,1005.91
2017-07-11T06:04:54.670Z,1005.92
2017-07-11T06:05:40.942Z,1005.95
2017-07-11T06:06:24.422Z,1005.96
2017-07-11T06:07:07.391Z,1005.95
2017-07-11T06:07:51.348Z,1005.95
2017-07-11T06:08:36.189Z,1005.9
2017-07-11T06:09:16.963Z,1005.94
2017-07-11T06:10:00.426Z,1005.92
2017-07-11T06:10:42.047Z,1005.96
2017-07-11T06:11:25.025Z,1005.98
2017-07-11T06:12:05.565Z,1005.97
2017-07-11T06:12:46.054Z,1005.99
2017-07-11T06:13:26.675Z,1005.98
2017-07-11T06:14:07.194Z,1005.96
2017-07-11T06:14:47.718Z,1005.98
2017-07-11T06:15:28.255Z,1005.97
2017-07-11T06:16:08.798Z,1005.99
2017-07-11T06:16:49.328Z,1005.97
2017-07-11T06:17:29.847Z,1005.96
2017-07-11T06:18:10.372Z,1006.02
2017-07-11T06:18:50.896Z,1006.02
2017-07-11T06:19:31.433Z,1006.01
2017-07-11T06:20:11.888Z,1006.05
2017-07-11T06:20:52.407Z,1006.04
2017-07-11T06:21:32.976Z,1006.04
2017-07-11T06:22:13.448Z,1006.04
2017-07-11T06:22:53.959Z,1006.07
2017-07-11T06:23:34.630Z,1006.1
2017-07-11T06:24:15.153Z,1006.1
2017-07-11T06:24:55.758Z,1006.07
2017-07-11T06:25:36.313Z,1006.07
2017-07-11T06:26:16.813Z,1006.11
2017-07-11T06:26:57.361Z,1006.05
2017-07-11T06:27:37.869Z,1006.04
2017-07-11T06:28:18.508Z,1006.09
2017-07-11T06:28:59.062Z,1006.1
2017-07-11T06:29:39.642Z,1006.13
2017-07-11T06:30:20.162Z,1006.11
2017-07-11T06:31:00.710Z,1006.12
2017-07-11T06:31:41.243Z,1006.13
2017-07-11T06:32:22.129Z,1006.12
2017-07-11T06:33:02.703Z,1006.16
2017-07-11T06:33:43.332Z,1006.12
2017-07-11T06:34:23.833Z,1006.11
2017-07-11T06:35:04.362Z,1006.13
2017-07-11T06:35:44.836Z,1006.1
2017-07-11T06:36:25.396Z,1006.12
2017-07-11T06:37:05.915Z,1006.14
2017-07-11T06:37:46.535Z,1006.15
2017-07-11T06:38:26.931Z,1006.11
2017-07-11T06:39:07.469Z,1006.1
2017-07-11T06:39:47.975Z,1006.13
2017-07-11T06:40:28.616Z,1006.19
2017-07-11T06:41:09.060Z,1006.23
2017-07-11T06:41:49.626Z,1006.28
2017-07-11T06:42:30.268Z,1006.24
2017-07-11T06:43:10.686Z,1006.2
2017-07-11T06:43:51.212Z,1006.22
2017-07-11T06:44:31.744Z,1006.25
2017-07-11T06:45:12.256Z,1006.26
2017-07-11T06:45:52.804Z,1006.27
2017-07-11T06:46:33.332Z,1006.25
2017-07-11T06:47:13.903Z,1006.27
2017-07-11T06:47:54.421Z,1006.3
2017-07-11T06:48:34.977Z,1006.29
2017-07-11T06:49:15.573Z,1006.26
2017-07-11T06:49:56.078Z,1006.29
2017-07-11T06:50:36.757Z,1006.26
2017-07-11T06:51:17.275Z,1006.25
2017-07-11T06:51:57.806Z,1006.35
2017-07-11T06:52:38.311Z,1006.41
2017-07-11T06:53:18.836Z,1006.29
2017-07-11T06:53:59.454Z,1006.31
2017-07-11T06:54:39.984Z,1006.31
2017-07-11T06:55:20.493Z,1006.3
2017-07-11T06:56:01.055Z,1006.33
2017-07-11T06:56:41.560Z,1006.33
2017-07-11T06:57:22.094Z,1006.31
2017-07-11T06:58:02.690Z,1006.33
2017-07-11T06:58:43.202Z,1006.23
2017-07-11T06:59:23.836Z,1006.27
2017-07-11T07:00:04.257Z,1006.29
2017-07-11T07:00:44.820Z,1006.29
2017-07-11T07:01:25.360Z,1006.27
2017-07-11T07:02:05.909Z,1006.28
2017-07-11T07:02:46.529Z,1006.3
2017-07-11T07:03:27.120Z,1006.3
2017-07-11T07:04:07.738Z,1006.31
2017-07-11T07:04:48.142Z,1006.32
2017-07-11T07:05:28.757Z,1006.35
2017-07-11T07:06:09.316Z,1006.29
2017-07-11T07:06:49.916Z,1006.31
2017-07-11T07:07:30.441Z,1006.35
2017-07-11T07:08:11.004Z,1006.33
2017-07-11T07:08:51.523Z,1006.33
2017-07-11T07:09:32.049Z,1006.34
2017-07-11T07:10:12.775Z,1006.41
2017-07-11T07:10:53.219Z,1006.44
2017-07-11T07:11:34.674Z,1006.4
2017-07-11T07:12:15.176Z,1006.4
2017-07-11T07:12:55.764Z,1006.38
2017-07-11T07:13:36.287Z,1006.47
2017-07-11T07:14:16.900Z,1006.43
2017-07-11T07:14:57.520Z,1006.43
2017-07-11T07:15:38.133Z,1006.41
2017-07-11T07:16:18.711Z,1006.4
2017-07-11T07:16:59.244Z,1006.35
2017-07-11T07:17:39.899Z,1006.35
2017-07-11T07:18:20.454Z,1006.37
2017-07-11T07:19:00.876Z,1006.35
2017-07-11T07:19:41.425Z,1006.34
2017-07-11T07:20:22.757Z,1006.37
2017-07-11T07:21:03.280Z,1006.39
2017-07-11T07:21:43.926Z,1006.37
2017-07-11T07:22:24.437Z,1006.4
2017-07-11T07:23:05.120Z,1006.38
2017-07-11T07:23:45.715Z,1006.34
2017-07-11T07:24:26.222Z,1006.44
2017-07-11T07:25:06.737Z,1006.36
2017-07-11T07:25:47.363Z,1006.37
2017-07-11T07:26:27.832Z,1006.4
2017-07-11T07:27:08.592Z,1006.41
2017-07-11T07:27:49.105Z,1006.39
2017-07-11T07:28:29.591Z,1006.45
2017-07-11T07:29:10.129Z,1006.35
2017-07-11T07:29:50.777Z,1006.36
2017-07-11T07:30:31.342Z,1006.36
2017-07-11T07:31:12.288Z,1006.33
2017-07-11T07:31:52.758Z,1006.41
2017-07-11T07:32:33.357Z,1006.32
2017-07-11T07:33:13.910Z,1006.36
2017-07-11T07:33:54.523Z,1006.31
2017-07-11T07:34:35.012Z,1006.31
2017-07-11T07:35:15.689Z,1006.35
2017-07-11T07:35:56.335Z,1006.39
2017-07-11T07:36:37.704Z,1006.35
2017-07-11T07:37:18.147Z,1006.34
2017-07-11T07:37:58.690Z,1006.41
2017-07-11T07:38:39.347Z,1006.43
2017-07-11T07:39:19.874Z,1006.35
2017-07-11T07:40:00.363Z,1006.33
2017-07-11T07:40:41.033Z,1006.4
2017-07-11T07:41:21.465Z,1006.52
2017-07-11T07:42:01.999Z,1006.42
2017-07-11T07:42:42.530Z,1006.52
2017-07-11T07:43:23.127Z,1006.42
2017-07-11T07:44:03.788Z,1006.48
2017-07-11T07:44:44.515Z,1006.46
2017-07-11T07:45:25.062Z,1006.49
2017-07-11T07:46:05.589Z,1006.48
2017-07-11T07:46:46.243Z,1006.51
2017-07-11T07:47:27.005Z,1006.53
2017-07-11T07:48:07.589Z,1006.54
2017-07-11T07:48:48.092Z,1006.47
2017-07-11T07:49:28.845Z,1006.5
2017-07-11T07:50:09.369Z,1006.47
2017-07-11T07:50:50.058Z,1006.49
2017-07-11T07:51:30.466Z,1006.47
2017-07-11T07:52:11.072Z,1006.47
2017-07-11T07:52:51.757Z,1006.48
2017-07-11T07:53:32.395Z,1006.51
2017-07-11T07:54:12.834Z,1006.52
2017-07-11T07:54:53.353Z,1006.48
2017-07-11T07:55:34.074Z,1006.52
2017-07-11T07:56:14.602Z,1006.44
2017-07-11T07:56:55.082Z,1006.47
2017-07-11T07:57:35.614Z,1006.52
2017-07-11T07:58:16.288Z,1006.58
2017-07-11T07:58:56.786Z,1006.58
2017-07-11T07:59:37.321Z,1006.57
2017-07-11T08:00:17.867Z,1006.59
2017-07-11T08:00:58.444Z,1006.58
2017-07-11T08:01:38.985Z,1006.62
2017-07-11T08:02:19.553Z,1006.53
2017-07-11T08:03:00.076Z,1006.57
2017-07-11T08:03:40.704Z,1006.59
2017-07-11T08:04:21.165Z,1006.57
2017-07-11T08:05:01.732Z,1006.57
2017-07-11T08:05:42.337Z,1006.53
2017-07-11T08:06:22.991Z,1006.62
2017-07-11T08:07:03.567Z,1006.57
2017-07-11T08:07:44.205Z,1006.54
2017-07-11T08:08:24.725Z,1006.55
2017-07-11T08:09:05.431Z,1006.53
2017-07-11T08:09:46.315Z,1006.54
2017-07-11T08:10:26.882Z,1006.57
2017-07-11T08:11:07.384Z,1006.62
2017-07-11T08:11:48.011Z,1006.54
2017-07-11T08:12:28.519Z,1006.56
2017-07-11T08:13:09.200Z,1006.57
2017-07-11T08:13:49.675Z,1006.49
2017-07-11T08:14:30.330Z,1006.53
2017-07-11T08:15:10.771Z,1006.52
2017-07-11T08:15:51.455Z,1006.54
2017-07-11T08:16:31.923Z,1006.61
2017-07-11T08:17:12.572Z,1006.52
2017-07-11T08:17:53.075Z,1006.55